sensor_id;sensor_type;location;lat;lon;timestamp;P1;P2;P0
68698;PMS7003;55680;48.850;2.310;2023-05-21T00:00:41;0.25;0.25;0.00
68698;PMS7003;55680;48.850;2.310;2023-05-21T00:03:06;1.00;1.00;0.00
68698;PMS7003;55680;48.850;2.310;2023-05-21T00:05:37;0.00;0.00;0.00
68698;PMS7003;55680;48.850;2.310;2023-05-21T00:08:05;1.00;1.00;0.00
68698;PMS7003;55680;48.850;2.310;2023-05-21T00:10:31;3.50;3.50;2.00
68698;PMS7003;55680;48.850;2.310;2023-05-21T00:12:56;2.00;2.00;2.00
68698;PMS7003;55680;48.850;2.310;2023-05-21T00:15:21;1.00;1.00;1.00
68698;PMS7003;55680;48.850;2.310;2023-05-21T00:17:47;8.00;5.50;3.75
68698;PMS7003;55680;48.850;2.310;2023-05-21T00:20:12;6.00;6.00;4.00
68698;PMS7003;55680;48.850;2.310;2023-05-21T00:22:38;1.75;0.00;0.00
68698;PMS7003;55680;48.850;2.310;2023-05-21T00:25:04;1.00;1.00;1.00
68698;PMS7003;55680;48.850;2.310;2023-05-21T00:27:30;3.00;2.50;1.00
68698;PMS7003;55680;48.850;2.310;2023-05-21T00:29:55;4.25;3.75;3.00
68698;PMS7003;55680;48.850;2.310;2023-05-21T00:32:21;4.50;3.75;3.00
68698;PMS7003;55680;48.850;2.310;2023-05-21T00:34:46;5.00;5.00;2.00
68698;PMS7003;55680;48.850;2.310;2023-05-21T00:37:12;1.25;1.25;1.00
68698;PMS7003;55680;48.850;2.310;2023-05-21T00:39:39;3.75;3.75;3.00
68698;PMS7003;55680;48.850;2.310;2023-05-21T00:42:04;3.25;3.25;1.50
68698;PMS7003;55680;48.850;2.310;2023-05-21T00:44:30;3.00;3.00;1.00
68698;PMS7003;55680;48.850;2.310;2023-05-21T00:47:02;5.00;5.00;3.00
68698;PMS7003;55680;48.850;2.310;2023-05-21T00:49:28;2.50;2.00;1.50
68698;PMS7003;55680;48.850;2.310;2023-05-21T00:51:54;1.50;1.50;1.00
68698;PMS7003;55680;48.850;2.310;2023-05-21T00:54:20;0.00;0.00;0.00
68698;PMS7003;55680;48.850;2.310;2023-05-21T00:56:46;7.75;7.50;6.00
68698;PMS7003;55680;48.850;2.310;2023-05-21T00:59:11;7.50;3.75;3.25
68698;PMS7003;55680;48.850;2.310;2023-05-21T01:01:38;4.50;2.00;1.00
68698;PMS7003;55680;48.850;2.310;2023-05-21T01:04:04;11.75;7.50;4.00
68698;PMS7003;55680;48.850;2.310;2023-05-21T01:06:29;3.00;3.00;3.00
68698;PMS7003;55680;48.850;2.310;2023-05-21T01:08:58;9.00;7.00;5.50
68698;PMS7003;55680;48.850;2.310;2023-05-21T01:11:27;4.00;4.00;3.25
68698;PMS7003;55680;48.850;2.310;2023-05-21T01:14:02;6.25;4.50;2.75
68698;PMS7003;55680;48.850;2.310;2023-05-21T01:16:28;1.75;1.75;1.00
68698;PMS7003;55680;48.850;2.310;2023-05-21T01:18:53;9.25;8.00;4.50
68698;PMS7003;55680;48.850;2.310;2023-05-21T01:21:19;9.33;4.67;3.00
68698;PMS7003;55680;48.850;2.310;2023-05-21T01:23:45;2.00;1.00;1.00
68698;PMS7003;55680;48.850;2.310;2023-05-21T01:26:11;13.25;7.00;4.00
68698;PMS7003;55680;48.850;2.310;2023-05-21T01:28:36;11.50;6.00;3.25
68698;PMS7003;55680;48.850;2.310;2023-05-21T01:31:04;3.00;3.00;3.00
68698;PMS7003;55680;48.850;2.310;2023-05-21T01:33:41;4.50;4.00;3.00
68698;PMS7003;55680;48.850;2.310;2023-05-21T01:36:20;11.25;7.00;6.00
68698;PMS7003;55680;48.850;2.310;2023-05-21T01:38:50;7.50;7.50;4.25
68698;PMS7003;55680;48.850;2.310;2023-05-21T01:41:22;7.00;7.00;4.50
68698;PMS7003;55680;48.850;2.310;2023-05-21T01:43:50;5.00;3.50;3.00
68698;PMS7003;55680;48.850;2.310;2023-05-21T01:46:19;8.75;8.75;6.00
68698;PMS7003;55680;48.850;2.310;2023-05-21T01:48:46;7.00;6.75;3.25
68698;PMS7003;55680;48.850;2.310;2023-05-21T01:51:12;6.75;6.25;4.00
68698;PMS7003;55680;48.850;2.310;2023-05-21T01:53:39;3.50;3.50;1.00
68698;PMS7003;55680;48.850;2.310;2023-05-21T01:56:05;6.00;6.00;4.00
68698;PMS7003;55680;48.850;2.310;2023-05-21T01:58:31;6.00;3.00;3.00
68698;PMS7003;55680;48.850;2.310;2023-05-21T02:00:56;15.50;15.50;11.75
68698;PMS7003;55680;48.850;2.310;2023-05-21T02:03:23;1.50;1.50;1.00
68698;PMS7003;55680;48.850;2.310;2023-05-21T02:05:49;5.00;5.00;4.00
68698;PMS7003;55680;48.850;2.310;2023-05-21T02:08:16;7.00;7.00;4.50
68698;PMS7003;55680;48.850;2.310;2023-05-21T02:10:43;5.00;5.00;3.00
68698;PMS7003;55680;48.850;2.310;2023-05-21T02:13:09;5.50;4.00;4.00
68698;PMS7003;55680;48.850;2.310;2023-05-21T02:15:34;8.25;4.00;3.00
68698;PMS7003;55680;48.850;2.310;2023-05-21T02:18:00;1.50;1.50;1.50
68698;PMS7003;55680;48.850;2.310;2023-05-21T02:20:25;9.25;9.25;6.25
68698;PMS7003;55680;48.850;2.310;2023-05-21T02:22:51;9.25;7.50;6.00
68698;PMS7003;55680;48.850;2.310;2023-05-21T02:25:17;12.00;7.50;4.00
68698;PMS7003;55680;48.850;2.310;2023-05-21T02:27:45;7.00;7.00;6.00
68698;PMS7003;55680;48.850;2.310;2023-05-21T02:30:11;3.75;3.00;1.00
68698;PMS7003;55680;48.850;2.310;2023-05-21T02:32:38;3.50;3.50;3.00
68698;PMS7003;55680;48.850;2.310;2023-05-21T02:35:06;6.00;6.00;3.50
68698;PMS7003;55680;48.850;2.310;2023-05-21T02:37:32;3.00;3.00;2.50
68698;PMS7003;55680;48.850;2.310;2023-05-21T02:39:58;10.00;6.00;3.75
68698;PMS7003;55680;48.850;2.310;2023-05-21T02:42:25;8.50;5.00;3.50
68698;PMS7003;55680;48.850;2.310;2023-05-21T02:44:50;0.00;0.00;0.00
68698;PMS7003;55680;48.850;2.310;2023-05-21T02:47:17;4.00;4.00;2.00
68698;PMS7003;55680;48.850;2.310;2023-05-21T02:49:43;9.25;8.00;4.00
68698;PMS7003;55680;48.850;2.310;2023-05-21T02:52:08;11.50;10.00;7.50
68698;PMS7003;55680;48.850;2.310;2023-05-21T02:54:34;14.00;9.50;5.50
68698;PMS7003;55680;48.850;2.310;2023-05-21T02:56:59;6.75;6.75;6.00
68698;PMS7003;55680;48.850;2.310;2023-05-21T02:59:25;7.00;4.50;3.75
68698;PMS7003;55680;48.850;2.310;2023-05-21T03:01:50;3.75;3.25;3.00
68698;PMS7003;55680;48.850;2.310;2023-05-21T03:04:15;5.00;5.00;3.25
68698;PMS7003;55680;48.850;2.310;2023-05-21T03:06:46;2.50;2.50;1.00
68698;PMS7003;55680;48.850;2.310;2023-05-21T03:09:11;5.25;5.00;3.00
68698;PMS7003;55680;48.850;2.310;2023-05-21T03:11:37;12.00;7.50;6.00
68698;PMS7003;55680;48.850;2.310;2023-05-21T03:14:02;6.75;6.75;4.00
68698;PMS7003;55680;48.850;2.310;2023-05-21T03:16:28;11.00;9.50;7.00
68698;PMS7003;55680;48.850;2.310;2023-05-21T03:18:53;7.00;5.50;3.75
68698;PMS7003;55680;48.850;2.310;2023-05-21T03:21:19;7.50;6.00;4.00
68698;PMS7003;55680;48.850;2.310;2023-05-21T03:23:46;6.00;6.00;3.00
68698;PMS7003;55680;48.850;2.310;2023-05-21T03:26:15;12.00;11.00;7.00
68698;PMS7003;55680;48.850;2.310;2023-05-21T03:28:40;10.00;9.75;6.00
68698;PMS7003;55680;48.850;2.310;2023-05-21T03:31:06;11.00;9.50;6.75
68698;PMS7003;55680;48.850;2.310;2023-05-21T03:33:31;9.25;9.00;6.00
68698;PMS7003;55680;48.850;2.310;2023-05-21T03:35:56;16.75;15.00;10.25
68698;PMS7003;55680;48.850;2.310;2023-05-21T03:38:22;15.50;13.25;9.25
68698;PMS7003;55680;48.850;2.310;2023-05-21T03:40:47;7.50;7.00;6.00
68698;PMS7003;55680;48.850;2.310;2023-05-21T03:43:12;17.25;14.50;10.00
68698;PMS7003;55680;48.850;2.310;2023-05-21T03:45:38;11.50;7.25;4.00
68698;PMS7003;55680;48.850;2.310;2023-05-21T03:48:03;8.25;7.00;6.00
68698;PMS7003;55680;48.850;2.310;2023-05-21T03:50:29;6.00;6.00;4.00
68698;PMS7003;55680;48.850;2.310;2023-05-21T03:52:54;15.50;10.50;6.75
68698;PMS7003;55680;48.850;2.310;2023-05-21T03:55:20;11.50;9.00;6.00
68698;PMS7003;55680;48.850;2.310;2023-05-21T03:57:45;7.00;7.00;4.00
68698;PMS7003;55680;48.850;2.310;2023-05-21T04:00:11;11.00;9.00;4.00
68698;PMS7003;55680;48.850;2.310;2023-05-21T04:02:36;6.50;3.75;3.50
68698;PMS7003;55680;48.850;2.310;2023-05-21T04:05:02;7.25;5.50;4.00
68698;PMS7003;55680;48.850;2.310;2023-05-21T04:07:27;3.25;3.25;3.00
68698;PMS7003;55680;48.850;2.310;2023-05-21T04:09:53;11.00;9.25;6.75
68698;PMS7003;55680;48.850;2.310;2023-05-21T04:12:19;5.50;2.75;2.50
68698;PMS7003;55680;48.850;2.310;2023-05-21T04:14:46;5.00;3.00;1.00
68698;PMS7003;55680;48.850;2.310;2023-05-21T04:17:11;21.00;12.50;9.00
68698;PMS7003;55680;48.850;2.310;2023-05-21T04:19:37;9.00;4.50;3.50
68698;PMS7003;55680;48.850;2.310;2023-05-21T04:22:03;9.00;9.00;6.00
68698;PMS7003;55680;48.850;2.310;2023-05-21T04:24:28;8.75;7.00;6.00
68698;PMS7003;55680;48.850;2.310;2023-05-21T04:26:54;7.50;6.00;3.75
68698;PMS7003;55680;48.850;2.310;2023-05-21T04:29:20;6.00;6.00;6.00
68698;PMS7003;55680;48.850;2.310;2023-05-21T04:31:48;6.75;6.75;4.00
68698;PMS7003;55680;48.850;2.310;2023-05-21T04:34:14;7.00;7.00;5.00
68698;PMS7003;55680;48.850;2.310;2023-05-21T04:36:44;4.50;4.50;3.00
68698;PMS7003;55680;48.850;2.310;2023-05-21T04:39:10;7.00;6.00;3.00
68698;PMS7003;55680;48.850;2.310;2023-05-21T04:41:36;9.25;5.00;3.25
68698;PMS7003;55680;48.850;2.310;2023-05-21T04:44:02;6.75;4.00;3.00
68698;PMS7003;55680;48.850;2.310;2023-05-21T04:46:28;3.00;0.50;0.00
68698;PMS7003;55680;48.850;2.310;2023-05-21T04:48:54;11.75;9.50;7.00
68698;PMS7003;55680;48.850;2.310;2023-05-21T04:51:22;16.00;10.00;7.00
68698;PMS7003;55680;48.850;2.310;2023-05-21T04:53:50;7.50;7.50;5.00
68698;PMS7003;55680;48.850;2.310;2023-05-21T04:56:17;3.75;2.50;1.00
68698;PMS7003;55680;48.850;2.310;2023-05-21T04:58:44;10.50;6.25;4.50
68698;PMS7003;55680;48.850;2.310;2023-05-21T05:01:09;6.25;6.25;3.00
68698;PMS7003;55680;48.850;2.310;2023-05-21T05:03:36;6.25;5.50;4.50
68698;PMS7003;55680;48.850;2.310;2023-05-21T05:06:02;4.00;4.00;3.00
68698;PMS7003;55680;48.850;2.310;2023-05-21T05:08:28;10.75;6.75;6.00
68698;PMS7003;55680;48.850;2.310;2023-05-21T05:10:54;7.25;7.25;4.50
68698;PMS7003;55680;48.850;2.310;2023-05-21T05:13:19;18.75;16.25;12.00
68698;PMS7003;55680;48.850;2.310;2023-05-21T05:15:44;12.50;12.50;9.50
68698;PMS7003;55680;48.850;2.310;2023-05-21T05:18:10;7.75;6.50;5.50
68698;PMS7003;55680;48.850;2.310;2023-05-21T05:20:36;12.00;9.00;6.00
68698;PMS7003;55680;48.850;2.310;2023-05-21T05:23:01;10.00;6.00;4.00
68698;PMS7003;55680;48.850;2.310;2023-05-21T05:25:27;3.00;3.00;1.50
68698;PMS7003;55680;48.850;2.310;2023-05-21T05:27:52;5.75;4.00;4.00
68698;PMS7003;55680;48.850;2.310;2023-05-21T05:30:18;6.25;4.25;4.25
68698;PMS7003;55680;48.850;2.310;2023-05-21T05:32:44;12.00;4.50;3.00
68698;PMS7003;55680;48.850;2.310;2023-05-21T05:35:10;16.50;12.00;7.00
68698;PMS7003;55680;48.850;2.310;2023-05-21T05:37:36;10.25;6.50;3.75
68698;PMS7003;55680;48.850;2.310;2023-05-21T05:40:02;9.75;8.00;6.00
68698;PMS7003;55680;48.850;2.310;2023-05-21T05:42:28;6.75;5.50;3.75
68698;PMS7003;55680;48.850;2.310;2023-05-21T05:44:53;12.25;9.75;8.00
68698;PMS7003;55680;48.850;2.310;2023-05-21T05:47:19;11.50;11.50;9.25
68698;PMS7003;55680;48.850;2.310;2023-05-21T05:49:45;16.00;13.75;9.50
68698;PMS7003;55680;48.850;2.310;2023-05-21T05:52:11;13.00;11.25;8.00
68698;PMS7003;55680;48.850;2.310;2023-05-21T05:54:36;22.00;17.00;13.00
68698;PMS7003;55680;48.850;2.310;2023-05-21T05:57:02;19.50;19.50;14.00
68698;PMS7003;55680;48.850;2.310;2023-05-21T05:59:27;18.25;16.75;11.00
68698;PMS7003;55680;48.850;2.310;2023-05-21T06:01:53;22.00;18.25;12.75
68698;PMS7003;55680;48.850;2.310;2023-05-21T06:04:18;19.25;17.25;13.75
68698;PMS7003;55680;48.850;2.310;2023-05-21T06:06:43;20.25;17.50;12.50
68698;PMS7003;55680;48.850;2.310;2023-05-21T06:09:10;21.75;21.75;15.75
68698;PMS7003;55680;48.850;2.310;2023-05-21T06:11:35;23.25;18.00;13.75
68698;PMS7003;55680;48.850;2.310;2023-05-21T06:14:01;20.25;14.75;12.25
68698;PMS7003;55680;48.850;2.310;2023-05-21T06:16:27;20.75;17.25;14.00
68698;PMS7003;55680;48.850;2.310;2023-05-21T06:18:52;25.75;25.00;15.25
68698;PMS7003;55680;48.850;2.310;2023-05-21T06:21:18;27.25;23.25;14.25
68698;PMS7003;55680;48.850;2.310;2023-05-21T06:23:43;23.00;19.50;14.75
68698;PMS7003;55680;48.850;2.310;2023-05-21T06:26:08;20.00;20.00;14.00
68698;PMS7003;55680;48.850;2.310;2023-05-21T06:28:34;23.50;20.50;14.25
68698;PMS7003;55680;48.850;2.310;2023-05-21T06:31:00;24.00;17.75;14.25
68698;PMS7003;55680;48.850;2.310;2023-05-21T06:33:26;19.50;16.75;11.75
68698;PMS7003;55680;48.850;2.310;2023-05-21T06:35:51;20.00;20.00;15.75
68698;PMS7003;55680;48.850;2.310;2023-05-21T06:38:17;16.00;16.00;11.25
68698;PMS7003;55680;48.850;2.310;2023-05-21T06:40:42;24.50;22.50;16.50
68698;PMS7003;55680;48.850;2.310;2023-05-21T06:43:11;18.75;15.50;11.25
68698;PMS7003;55680;48.850;2.310;2023-05-21T06:45:36;15.75;14.75;10.50
68698;PMS7003;55680;48.850;2.310;2023-05-21T06:48:02;19.50;18.00;11.00
68698;PMS7003;55680;48.850;2.310;2023-05-21T06:50:27;16.00;12.25;8.50
68698;PMS7003;55680;48.850;2.310;2023-05-21T06:52:53;14.75;14.75;12.50
68698;PMS7003;55680;48.850;2.310;2023-05-21T06:55:18;18.75;15.50;11.25
68698;PMS7003;55680;48.850;2.310;2023-05-21T06:57:43;21.75;19.50;12.00
68698;PMS7003;55680;48.850;2.310;2023-05-21T07:00:09;9.75;9.50;7.75
68698;PMS7003;55680;48.850;2.310;2023-05-21T07:02:36;19.75;17.00;12.50
68698;PMS7003;55680;48.850;2.310;2023-05-21T07:05:01;15.50;14.50;9.25
68698;PMS7003;55680;48.850;2.310;2023-05-21T07:07:26;18.00;18.00;10.75
68698;PMS7003;55680;48.850;2.310;2023-05-21T07:09:52;13.00;11.75;8.25
68698;PMS7003;55680;48.850;2.310;2023-05-21T07:12:17;16.00;15.00;9.00
68698;PMS7003;55680;48.850;2.310;2023-05-21T07:14:43;18.50;18.50;13.50
68698;PMS7003;55680;48.850;2.310;2023-05-21T07:17:08;12.50;12.50;9.25
68698;PMS7003;55680;48.850;2.310;2023-05-21T07:19:33;14.50;10.75;8.00
68698;PMS7003;55680;48.850;2.310;2023-05-21T07:21:59;16.50;13.25;8.00
68698;PMS7003;55680;48.850;2.310;2023-05-21T07:24:24;19.50;16.25;12.50
68698;PMS7003;55680;48.850;2.310;2023-05-21T07:26:51;16.25;16.25;13.00
68698;PMS7003;55680;48.850;2.310;2023-05-21T07:29:17;10.75;10.75;7.75
68698;PMS7003;55680;48.850;2.310;2023-05-21T07:31:42;18.50;16.75;12.25
68698;PMS7003;55680;48.850;2.310;2023-05-21T07:34:07;16.00;12.00;9.75
68698;PMS7003;55680;48.850;2.310;2023-05-21T07:36:33;16.25;15.50;11.50
68698;PMS7003;55680;48.850;2.310;2023-05-21T07:38:58;25.00;18.00;14.00
68698;PMS7003;55680;48.850;2.310;2023-05-21T07:41:24;12.75;12.75;9.50
68698;PMS7003;55680;48.850;2.310;2023-05-21T07:43:50;15.75;15.25;12.25
68698;PMS7003;55680;48.850;2.310;2023-05-21T07:46:15;14.25;13.00;11.00
68698;PMS7003;55680;48.850;2.310;2023-05-21T07:48:40;11.75;11.00;9.00
68698;PMS7003;55680;48.850;2.310;2023-05-21T07:51:07;15.00;12.00;8.50
68698;PMS7003;55680;48.850;2.310;2023-05-21T07:53:33;20.75;17.25;12.50
68698;PMS7003;55680;48.850;2.310;2023-05-21T07:55:59;10.00;7.50;6.25
68698;PMS7003;55680;48.850;2.310;2023-05-21T07:58:24;8.50;8.50;7.75
68698;PMS7003;55680;48.850;2.310;2023-05-21T08:00:49;9.00;9.00;7.00
68698;PMS7003;55680;48.850;2.310;2023-05-21T08:03:15;12.50;11.50;7.25
68698;PMS7003;55680;48.850;2.310;2023-05-21T08:05:44;8.25;8.25;6.50
68698;PMS7003;55680;48.850;2.310;2023-05-21T08:08:16;9.50;9.50;6.50
68698;PMS7003;55680;48.850;2.310;2023-05-21T08:10:42;9.50;9.00;7.00
68698;PMS7003;55680;48.850;2.310;2023-05-21T08:13:08;9.25;9.00;6.50
68698;PMS7003;55680;48.850;2.310;2023-05-21T08:15:35;12.00;12.00;7.50
68698;PMS7003;55680;48.850;2.310;2023-05-21T08:18:00;10.50;8.75;7.50
68698;PMS7003;55680;48.850;2.310;2023-05-21T08:20:26;18.75;14.00;10.25
68698;PMS7003;55680;48.850;2.310;2023-05-21T08:22:51;9.00;9.00;7.00
68698;PMS7003;55680;48.850;2.310;2023-05-21T08:25:17;14.00;14.00;11.25
68698;PMS7003;55680;48.850;2.310;2023-05-21T08:27:43;11.50;11.50;9.50
68698;PMS7003;55680;48.850;2.310;2023-05-21T08:30:08;13.25;12.00;10.00
68698;PMS7003;55680;48.850;2.310;2023-05-21T08:32:37;10.00;8.75;7.00
68698;PMS7003;55680;48.850;2.310;2023-05-21T08:35:02;10.25;9.50;7.25
68698;PMS7003;55680;48.850;2.310;2023-05-21T08:37:28;13.25;10.50;7.50
68698;PMS7003;55680;48.850;2.310;2023-05-21T08:39:54;6.25;6.00;5.25
68698;PMS7003;55680;48.850;2.310;2023-05-21T08:45:04;10.25;10.25;9.00
68698;PMS7003;55680;48.850;2.310;2023-05-21T08:47:31;11.25;11.25;8.00
68698;PMS7003;55680;48.850;2.310;2023-05-21T08:49:59;7.00;7.00;4.25
68698;PMS7003;55680;48.850;2.310;2023-05-21T08:52:25;8.50;8.50;5.75
68698;PMS7003;55680;48.850;2.310;2023-05-21T08:54:51;7.75;6.50;4.25
68698;PMS7003;55680;48.850;2.310;2023-05-21T08:57:17;12.75;8.25;5.75
68698;PMS7003;55680;48.850;2.310;2023-05-21T08:59:43;10.25;10.25;7.50
68698;PMS7003;55680;48.850;2.310;2023-05-21T09:02:12;12.50;11.75;8.50
68698;PMS7003;55680;48.850;2.310;2023-05-21T09:04:41;9.00;9.00;7.50
68698;PMS7003;55680;48.850;2.310;2023-05-21T09:07:07;9.00;9.00;6.50
68698;PMS7003;55680;48.850;2.310;2023-05-21T09:09:36;11.00;9.25;7.50
68698;PMS7003;55680;48.850;2.310;2023-05-21T09:12:05;3.25;3.25;1.75
68698;PMS7003;55680;48.850;2.310;2023-05-21T09:14:31;7.25;7.25;6.00
68698;PMS7003;55680;48.850;2.310;2023-05-21T09:16:57;8.50;8.50;5.25
68698;PMS7003;55680;48.850;2.310;2023-05-21T09:19:22;10.50;8.25;6.50
68698;PMS7003;55680;48.850;2.310;2023-05-21T09:21:49;7.75;7.75;6.00
68698;PMS7003;55680;48.850;2.310;2023-05-21T09:24:15;9.25;8.00;6.50
68698;PMS7003;55680;48.850;2.310;2023-05-21T09:26:41;5.50;5.50;4.25
68698;PMS7003;55680;48.850;2.310;2023-05-21T09:29:07;8.75;6.75;6.00
68698;PMS7003;55680;48.850;2.310;2023-05-21T09:31:33;9.75;7.50;6.25
68698;PMS7003;55680;48.850;2.310;2023-05-21T09:33:58;6.00;6.00;4.50
68698;PMS7003;55680;48.850;2.310;2023-05-21T09:36:23;8.50;6.50;5.75
68698;PMS7003;55680;48.850;2.310;2023-05-21T09:38:49;11.75;10.00;9.00
68698;PMS7003;55680;48.850;2.310;2023-05-21T09:41:16;9.50;8.50;5.75
68698;PMS7003;55680;48.850;2.310;2023-05-21T09:43:41;11.50;10.75;8.50
68698;PMS7003;55680;48.850;2.310;2023-05-21T09:46:10;7.50;7.50;6.75
68698;PMS7003;55680;48.850;2.310;2023-05-21T09:48:39;11.25;9.50;8.00
68698;PMS7003;55680;48.850;2.310;2023-05-21T09:51:09;11.50;11.50;9.00
68698;PMS7003;55680;48.850;2.310;2023-05-21T09:53:36;13.00;10.50;8.00
68698;PMS7003;55680;48.850;2.310;2023-05-21T09:56:21;9.00;7.75;6.25
68698;PMS7003;55680;48.850;2.310;2023-05-21T09:58:50;18.50;15.50;12.25
68698;PMS7003;55680;48.850;2.310;2023-05-21T10:01:29;14.50;12.50;9.25
68698;PMS7003;55680;48.850;2.310;2023-05-21T10:03:55;15.25;12.75;9.50
68698;PMS7003;55680;48.850;2.310;2023-05-21T10:06:26;14.75;13.50;9.75
68698;PMS7003;55680;48.850;2.310;2023-05-21T10:08:53;8.50;8.50;7.50
68698;PMS7003;55680;48.850;2.310;2023-05-21T10:11:23;9.75;8.50;6.50
68698;PMS7003;55680;48.850;2.310;2023-05-21T10:13:53;7.25;7.25;5.50
68698;PMS7003;55680;48.850;2.310;2023-05-21T10:16:22;10.00;10.00;8.75
68698;PMS7003;55680;48.850;2.310;2023-05-21T10:18:47;12.50;9.50;8.50
68698;PMS7003;55680;48.850;2.310;2023-05-21T10:21:14;13.50;11.25;8.00
68698;PMS7003;55680;48.850;2.310;2023-05-21T10:23:40;14.25;10.00;7.00
68698;PMS7003;55680;48.850;2.310;2023-05-21T10:26:07;16.25;9.50;6.75
68698;PMS7003;55680;48.850;2.310;2023-05-21T10:28:32;14.50;13.50;11.75
68698;PMS7003;55680;48.850;2.310;2023-05-21T10:30:58;11.25;9.75;8.50
68698;PMS7003;55680;48.850;2.310;2023-05-21T10:33:23;8.50;8.50;7.00
68698;PMS7003;55680;48.850;2.310;2023-05-21T10:35:50;14.25;13.50;9.75
68698;PMS7003;55680;48.850;2.310;2023-05-21T10:38:16;9.25;9.25;7.00
68698;PMS7003;55680;48.850;2.310;2023-05-21T10:40:43;11.50;9.50;8.50
68698;PMS7003;55680;48.850;2.310;2023-05-21T10:43:18;16.50;14.25;11.00
68698;PMS7003;55680;48.850;2.310;2023-05-21T10:49:18;13.75;11.25;8.75
68698;PMS7003;55680;48.850;2.310;2023-05-21T10:52:03;9.25;9.00;6.50
68698;PMS7003;55680;48.850;2.310;2023-05-21T11:00:04;9.00;9.00;7.25
68698;PMS7003;55680;48.850;2.310;2023-05-21T11:02:31;12.00;9.00;7.00
68698;PMS7003;55680;48.850;2.310;2023-05-21T11:04:58;12.25;12.25;9.25
68698;PMS7003;55680;48.850;2.310;2023-05-21T11:07:48;18.25;15.25;10.50
68698;PMS7003;55680;48.850;2.310;2023-05-21T11:10:38;16.25;14.75;10.75
68698;PMS7003;55680;48.850;2.310;2023-05-21T11:13:09;13.25;12.00;8.75
68698;PMS7003;55680;48.850;2.310;2023-05-21T11:26:14;9.00;9.00;6.75
68698;PMS7003;55680;48.850;2.310;2023-05-21T11:28:40;15.50;13.50;10.50
68698;PMS7003;55680;48.850;2.310;2023-05-21T11:31:21;14.00;11.75;9.25
68698;PMS7003;55680;48.850;2.310;2023-05-21T11:34:07;9.75;8.50;6.25
68698;PMS7003;55680;48.850;2.310;2023-05-21T11:36:32;11.25;11.25;9.00
68698;PMS7003;55680;48.850;2.310;2023-05-21T11:41:57;10.75;9.00;7.25
68698;PMS7003;55680;48.850;2.310;2023-05-21T11:47:13;14.25;12.75;9.75
68698;PMS7003;55680;48.850;2.310;2023-05-21T11:49:42;12.50;10.75;8.25
68698;PMS7003;55680;48.850;2.310;2023-05-21T11:52:08;9.00;8.25;7.25
68698;PMS7003;55680;48.850;2.310;2023-05-21T11:54:44;8.00;6.75;5.75
68698;PMS7003;55680;48.850;2.310;2023-05-21T11:57:12;9.75;9.75;8.00
68698;PMS7003;55680;48.850;2.310;2023-05-21T11:59:42;9.50;9.00;7.00
68698;PMS7003;55680;48.850;2.310;2023-05-21T12:02:08;10.50;10.50;9.75
68698;PMS7003;55680;48.850;2.310;2023-05-21T12:04:34;8.50;8.25;6.00
68698;PMS7003;55680;48.850;2.310;2023-05-21T12:07:07;13.50;10.00;8.50
68698;PMS7003;55680;48.850;2.310;2023-05-21T12:12:15;7.00;7.00;5.25
68698;PMS7003;55680;48.850;2.310;2023-05-21T12:14:42;16.75;13.50;10.25
68698;PMS7003;55680;48.850;2.310;2023-05-21T12:17:10;14.75;11.50;9.75
68698;PMS7003;55680;48.850;2.310;2023-05-21T12:19:37;8.75;8.75;6.25
68698;PMS7003;55680;48.850;2.310;2023-05-21T12:22:03;10.50;10.50;8.75
68698;PMS7003;55680;48.850;2.310;2023-05-21T12:24:29;12.75;11.00;9.00
68698;PMS7003;55680;48.850;2.310;2023-05-21T12:26:58;8.00;7.75;6.00
68698;PMS7003;55680;48.850;2.310;2023-05-21T12:29:48;13.50;11.25;9.50
68698;PMS7003;55680;48.850;2.310;2023-05-21T12:32:13;7.75;7.75;5.25
68698;PMS7003;55680;48.850;2.310;2023-05-21T12:34:42;9.75;8.25;7.50
68698;PMS7003;55680;48.850;2.310;2023-05-21T12:37:18;3.75;3.75;3.25
68698;PMS7003;55680;48.850;2.310;2023-05-21T12:39:46;11.25;9.00;6.75
68698;PMS7003;55680;48.850;2.310;2023-05-21T12:42:13;10.25;9.00;7.50
68698;PMS7003;55680;48.850;2.310;2023-05-21T12:44:42;14.50;14.50;9.00
68698;PMS7003;55680;48.850;2.310;2023-05-21T12:47:10;10.75;10.75;8.75
68698;PMS7003;55680;48.850;2.310;2023-05-21T12:49:37;11.75;9.50;8.25
68698;PMS7003;55680;48.850;2.310;2023-05-21T12:52:07;17.00;16.00;11.75
68698;PMS7003;55680;48.850;2.310;2023-05-21T12:54:37;10.25;7.50;5.50
68698;PMS7003;55680;48.850;2.310;2023-05-21T12:57:13;18.25;11.75;9.00
68698;PMS7003;55680;48.850;2.310;2023-05-21T13:02:15;15.00;12.50;9.50
68698;PMS7003;55680;48.850;2.310;2023-05-21T13:04:44;11.00;10.00;6.00
68698;PMS7003;55680;48.850;2.310;2023-05-21T13:07:10;17.25;15.00;11.00
68698;PMS7003;55680;48.850;2.310;2023-05-21T13:09:35;7.25;6.25;4.25
68698;PMS7003;55680;48.850;2.310;2023-05-21T13:12:01;9.00;7.25;5.50
68698;PMS7003;55680;48.850;2.310;2023-05-21T13:14:26;9.50;8.50;7.00
68698;PMS7003;55680;48.850;2.310;2023-05-21T13:16:51;8.75;7.75;6.00
68698;PMS7003;55680;48.850;2.310;2023-05-21T13:19:17;8.75;8.75;8.25
68698;PMS7003;55680;48.850;2.310;2023-05-21T13:21:42;12.75;11.00;7.25
68698;PMS7003;55680;48.850;2.310;2023-05-21T13:24:07;12.75;12.75;10.00
68698;PMS7003;55680;48.850;2.310;2023-05-21T13:26:33;10.50;10.50;8.50
68698;PMS7003;55680;48.850;2.310;2023-05-21T13:28:58;16.25;15.25;10.25
68698;PMS7003;55680;48.850;2.310;2023-05-21T13:31:23;11.25;10.00;9.00
68698;PMS7003;55680;48.850;2.310;2023-05-21T13:33:49;15.75;13.00;10.00
68698;PMS7003;55680;48.850;2.310;2023-05-21T13:36:14;7.75;7.75;6.25
68698;PMS7003;55680;48.850;2.310;2023-05-21T13:38:40;11.25;10.25;7.50
68698;PMS7003;55680;48.850;2.310;2023-05-21T13:41:05;15.00;13.25;10.25
68698;PMS7003;55680;48.850;2.310;2023-05-21T13:43:31;18.00;12.50;9.75
68698;PMS7003;55680;48.850;2.310;2023-05-21T13:45:56;8.50;8.50;7.00
68698;PMS7003;55680;48.850;2.310;2023-05-21T13:48:21;10.75;10.75;8.00
68698;PMS7003;55680;48.850;2.310;2023-05-21T13:50:47;15.75;13.25;10.75
68698;PMS7003;55680;48.850;2.310;2023-05-21T13:53:12;14.75;12.50;8.75
68698;PMS7003;55680;48.850;2.310;2023-05-21T13:55:38;11.50;11.00;8.00
68698;PMS7003;55680;48.850;2.310;2023-05-21T13:58:03;0.00;0.00;0.00
68698;PMS7003;55680;48.850;2.310;2023-05-21T14:00:29;11.50;11.50;9.25
68698;PMS7003;55680;48.850;2.310;2023-05-21T14:02:54;14.75;9.25;7.50
68698;PMS7003;55680;48.850;2.310;2023-05-21T14:05:20;12.50;9.75;7.50
68698;PMS7003;55680;48.850;2.310;2023-05-21T14:07:45;13.25;13.25;11.00
68698;PMS7003;55680;48.850;2.310;2023-05-21T14:10:12;14.50;12.75;9.75
68698;PMS7003;55680;48.850;2.310;2023-05-21T14:12:38;13.50;13.00;10.00
68698;PMS7003;55680;48.850;2.310;2023-05-21T14:15:04;11.00;9.25;7.75
68698;PMS7003;55680;48.850;2.310;2023-05-21T14:17:30;11.00;11.00;8.25
68698;PMS7003;55680;48.850;2.310;2023-05-21T14:19:55;11.25;11.25;9.50
68698;PMS7003;55680;48.850;2.310;2023-05-21T14:22:21;11.25;10.75;8.50
68698;PMS7003;55680;48.850;2.310;2023-05-21T14:24:46;9.50;9.50;6.25
68698;PMS7003;55680;48.850;2.310;2023-05-21T14:27:13;13.50;12.75;8.75
68698;PMS7003;55680;48.850;2.310;2023-05-21T14:29:39;9.75;8.25;6.25
68698;PMS7003;55680;48.850;2.310;2023-05-21T14:32:04;10.50;10.50;8.50
68698;PMS7003;55680;48.850;2.310;2023-05-21T14:34:30;17.00;12.75;9.00
68698;PMS7003;55680;48.850;2.310;2023-05-21T14:36:55;11.50;10.50;8.50
68698;PMS7003;55680;48.850;2.310;2023-05-21T14:39:21;11.00;11.00;8.00